Time;durP1;ratioP1;P1;durP2;ratioP2;P2;SDS_P1;SDS_P2;PMS_P1;PMS_P2;Temp;Humidity;BMP_temperature;BMP_pressure;BME280_temperature;BME280_humidity;BME280_pressure;Samples;Min_cycle;Max_cycle;Signal;HPM_P1;HPM_P2
2023/03/28 00:01:41;;;;;;;0.35;0.20;;;;;;;2.84;73.12;102814.84;5016165;28;102657;-29
2023/03/28 00:04:10;;;;;;;2.25;0.30;;;;;;;2.81;73.63;102811.25;5016484;28;97772;-30
2023/03/28 00:06:37;;;;;;;0.00;0.00;;;;;;;2.79;73.34;102823.72;5015590;28;96475;-29
2023/03/28 00:09:03;;;;;;;0.08;0.08;;;;;;;2.76;73.44;102819.25;5015286;28;97930;-29
2023/03/28 00:11:28;;;;;;;0.10;0.10;;;;;;;2.74;73.51;102829.06;5014801;28;100810;-28
2023/03/28 00:13:59;;;;;;;0.10;0.10;;;;;;;2.72;73.62;102826.41;5016541;28;105737;-29
2023/03/28 00:16:33;;;;;;;0.05;0.05;;;;;;;2.68;73.50;102824.59;5015453;28;96794;-28
2023/03/28 00:19:01;;;;;;;0.50;0.30;;;;;;;2.68;73.50;102829.06;5015701;28;96849;-29
2023/03/28 00:21:28;;;;;;;3.70;0.17;;;;;;;2.68;73.43;102827.28;5015011;28;100937;-29
2023/03/28 00:24:00;;;;;;;0.00;0.00;;;;;;;2.65;73.81;102818.34;5014741;28;104289;-29
2023/03/28 00:26:27;;;;;;;0.40;0.20;;;;;;;2.64;73.78;102821.91;5014503;28;96602;-29
2023/03/28 00:28:53;;;;;;;0.93;0.08;;;;;;;2.60;73.80;102822.78;5014525;28;96887;-29
2023/03/28 00:31:19;;;;;;;0.63;0.20;;;;;;;2.62;73.47;102824.59;5015884;28;99819;-29
2023/03/28 00:33:48;;;;;;;0.00;0.00;;;;;;;2.59;73.83;102821.88;5014634;28;101494;-29
2023/03/28 00:36:21;;;;;;;0.32;0.32;;;;;;;2.53;74.39;102821.88;5014977;28;96557;-29
2023/03/28 00:38:51;;;;;;;0.00;0.00;;;;;;;2.51;74.10;102824.53;5016304;28;96632;-29
2023/03/28 00:41:17;;;;;;;0.30;0.10;;;;;;;2.49;74.53;102817.41;5014500;28;99552;-29
2023/03/28 00:43:45;;;;;;;1.48;0.20;;;;;;;2.49;73.73;102812.06;5014623;28;100955;-30
2023/03/28 00:46:40;;;;;;;0.10;0.10;;;;;;;2.48;74.40;102821.88;5014850;28;96622;-29
2023/03/28 00:49:12;;;;;;;0.25;0.10;;;;;;;2.46;74.27;102822.75;5014844;28;96728;-29
2023/03/28 00:51:51;;;;;;;0.22;0.17;;;;;;;2.42;74.29;102819.16;5013865;28;100832;-29
2023/03/28 00:54:18;;;;;;;0.45;0.28;;;;;;;2.40;74.60;102815.56;5016099;28;98403;-29
2023/03/28 00:56:47;;;;;;;0.73;0.60;;;;;;;2.36;74.48;102810.19;5014721;28;96686;-29
2023/03/28 00:59:17;;;;;;;1.45;0.50;;;;;;;2.37;74.89;102818.25;5014686;28;96778;-29
2023/03/28 01:01:43;;;;;;;0.98;0.60;;;;;;;2.37;74.25;102807.53;5015679;28;97384;-31
2023/03/28 01:04:08;;;;;;;1.25;0.75;;;;;;;2.36;74.72;102811.13;5014211;28;100777;-29
2023/03/28 01:06:39;;;;;;;1.13;0.38;;;;;;;2.31;74.74;102797.72;5015520;28;97241;-30
2023/03/28 01:09:07;;;;;;;2.08;1.00;;;;;;;2.30;75.05;102801.28;5014903;28;96671;-30
2023/03/28 01:11:39;;;;;;;0.40;0.38;;;;;;;2.28;75.16;102807.50;5014059;28;100947;-29
2023/03/28 01:14:06;;;;;;;0.60;0.40;;;;;;;2.30;74.93;102806.63;5014121;28;101116;-29
2023/03/28 01:16:31;;;;;;;0.43;0.35;;;;;;;2.25;75.03;102797.69;5013865;28;96588;-29
2023/03/28 01:19:02;;;;;;;3.53;0.68;;;;;;;2.23;74.99;102796.78;5015952;28;96861;-29
2023/03/28 01:21:48;;;;;;;4.45;0.70;;;;;;;2.23;75.29;102788.75;5013993;28;101751;-29
2023/03/28 01:24:25;;;;;;;0.10;0.10;;;;;;;2.23;75.31;102787.88;5015262;28;99157;-29
2023/03/28 01:27:16;;;;;;;3.70;0.43;;;;;;;2.19;75.29;102781.59;5015085;28;96845;-31
2023/03/28 01:30:02;;;;;;;0.65;0.30;;;;;;;2.19;75.40;102786.06;5014215;28;96742;-29
2023/03/28 01:32:38;;;;;;;0.88;0.25;;;;;;;2.22;75.75;102789.66;5013777;28;101057;-29
2023/03/28 01:35:06;;;;;;;0.43;0.15;;;;;;;2.19;75.60;102780.72;5014107;28;101189;-30
2023/03/28 01:37:46;;;;;;;0.45;0.45;;;;;;;2.12;75.45;102775.38;5014010;28;97249;-29
2023/03/28 01:40:37;;;;;;;0.10;0.10;;;;;;;2.16;76.24;102783.38;5013445;28;96607;-29
2023/03/28 01:43:16;;;;;;;0.40;0.22;;;;;;;2.13;76.14;102781.59;5013087;28;100992;-29
2023/03/28 01:45:56;;;;;;;0.30;0.20;;;;;;;2.12;76.02;102787.81;5013621;28;100791;-29
2023/03/28 01:48:55;;;;;;;0.17;0.13;;;;;;;2.08;75.86;102784.25;5013706;28;96629;-29
2023/03/28 01:51:40;;;;;;;0.20;0.20;;;;;;;2.08;76.38;102789.59;5006396;28;96844;-30
2023/03/28 01:54:29;;;;;;;2.28;0.77;;;;;;;2.09;76.60;102793.16;5013372;28;101217;-29
2023/03/28 01:57:01;;;;;;;0.10;0.10;;;;;;;2.08;76.71;102784.25;5013445;28;100991;-28
2023/03/28 01:59:40;;;;;;;1.25;0.52;;;;;;;2.07;76.68;102793.16;5013680;28;96549;-29
2023/03/28 02:02:13;;;;;;;0.00;0.00;;;;;;;2.06;76.61;102787.81;5014049;28;96732;-30
2023/03/28 02:04:44;;;;;;;1.02;0.17;;;;;;;2.09;75.97;102787.81;5013252;28;100735;-32
2023/03/28 02:07:10;;;;;;;1.20;0.90;;;;;;;2.09;76.50;102796.72;5014760;28;99380;-29
2023/03/28 02:09:37;;;;;;;1.08;0.77;;;;;;;2.10;76.75;102795.84;5013053;28;96582;-31
2023/03/28 02:12:08;;;;;;;2.55;0.95;;;;;;;2.07;76.21;102789.56;5013329;28;96859;-29
2023/03/28 02:14:38;;;;;;;0.88;0.47;;;;;;;2.08;76.29;102788.72;5013402;28;101202;-29
2023/03/28 02:17:14;;;;;;;0.10;0.10;;;;;;;2.09;76.60;102787.81;5013157;28;100917;-29
2023/03/28 02:19:45;;;;;;;1.27;0.73;;;;;;;2.08;76.35;102781.56;5013657;28;96564;-29
2023/03/28 02:22:38;;;;;;;1.15;0.93;;;;;;;2.06;76.99;102782.44;5013413;28;96784;-28
2023/03/28 02:25:04;;;;;;;0.47;0.15;;;;;;;2.07;76.39;102782.47;5013072;28;100662;-29
2023/03/28 02:27:31;;;;;;;0.30;0.30;;;;;;;2.05;76.64;102773.53;5012594;28;101329;-29
2023/03/28 02:29:57;;;;;;;1.27;0.70;;;;;;;2.07;76.75;102777.13;5013097;28;96690;-29
2023/03/28 02:32:22;;;;;;;1.70;0.17;;;;;;;2.04;77.11;102779.75;5014548;28;96556;-29
2023/03/28 02:34:51;;;;;;;0.10;0.10;;;;;;;2.03;76.66;102774.44;5013578;28;99679;-29
2023/03/28 02:37:29;;;;;;;2.83;0.40;;;;;;;2.02;76.46;102772.63;5012926;28;100736;-30
2023/03/28 02:40:16;;;;;;;0.08;0.08;;;;;;;2.00;76.39;102769.97;5013118;28;96585;-30
2023/03/28 02:42:47;;;;;;;0.25;0.17;;;;;;;1.98;76.80;102771.72;5013130;28;96825;-29
2023/03/28 02:45:26;;;;;;;2.53;0.05;;;;;;;1.98;77.03;102773.47;5014264;28;98098;-29
2023/03/28 02:48:12;;;;;;;0.52;0.00;;;;;;;1.96;76.80;102767.25;5012784;28;98996;-29
2023/03/28 02:51:07;;;;;;;0.00;0.00;;;;;;;1.95;76.44;102768.13;5012984;28;96610;-29
2023/03/28 02:53:44;;;;;;;0.08;0.08;;;;;;;1.94;77.16;102780.59;5016954;28;96736;-29
2023/03/28 02:56:28;;;;;;;0.25;0.25;;;;;;;1.94;76.67;102772.59;5016390;28;101271;-29
2023/03/28 02:59:06;;;;;;;0.05;0.00;;;;;;;1.93;76.27;102773.47;5016293;28;100708;-29
2023/03/28 03:01:32;;;;;;;0.03;0.03;;;;;;;1.93;76.54;102768.13;5015992;28;96748;-29
2023/03/28 03:03:59;;;;;;;0.82;0.28;;;;;;;1.90;76.72;102757.41;5016419;28;96787;-29
2023/03/28 03:06:25;;;;;;;0.00;0.00;;;;;;;1.90;76.84;102771.66;5016018;28;100801;-29
2023/03/28 03:08:50;;;;;;;0.10;0.10;;;;;;;1.89;76.75;102761.00;5017661;28;98402;-28
2023/03/28 03:11:16;;;;;;;0.00;0.00;;;;;;;1.89;76.57;102763.66;5017521;28;96494;-29
2023/03/28 03:13:42;;;;;;;0.00;0.00;;;;;;;1.89;76.33;102767.22;5017485;28;96785;-29
2023/03/28 03:16:08;;;;;;;0.40;0.40;;;;;;;1.92;76.93;102769.00;5017426;28;97986;-29
2023/03/28 03:18:33;;;;;;;0.00;0.00;;;;;;;1.89;77.12;102752.97;5018037;28;97492;-29
2023/03/28 03:21:00;;;;;;;0.15;0.00;;;;;;;1.94;76.44;102766.34;5017741;28;96610;-28
2023/03/28 03:23:26;;;;;;;0.00;0.00;;;;;;;1.95;76.72;102752.09;5016092;28;96762;-29
2023/03/28 03:25:51;;;;;;;0.00;0.00;;;;;;;1.94;76.60;102753.00;5016867;28;97952;-29
2023/03/28 03:28:17;;;;;;;0.00;0.00;;;;;;;1.96;77.00;102756.56;5015886;28;99371;-28
2023/03/28 03:30:43;;;;;;;4.95;0.40;;;;;;;1.96;76.60;102760.13;5017270;28;96712;-29
2023/03/28 03:33:10;;;;;;;0.45;0.30;;;;;;;1.99;76.63;102759.25;5017144;28;96742;-30
2023/03/28 03:35:36;;;;;;;2.60;0.20;;;;;;;1.99;76.92;102757.47;5015587;28;101225;-28
2023/03/28 03:38:03;;;;;;;5.38;0.57;;;;;;;2.03;77.15;102763.75;5015635;28;100682;-30
2023/03/28 03:40:28;;;;;;;0.45;0.10;;;;;;;2.02;77.27;102761.94;5015798;28;96566;-29
2023/03/28 03:42:53;;;;;;;0.35;0.28;;;;;;;1.99;77.22;102754.78;5017216;28;98316;-29
2023/03/28 03:45:19;;;;;;;0.93;0.20;;;;;;;1.95;77.41;102744.97;5016931;28;97851;-29
2023/03/28 03:47:44;;;;;;;0.00;0.00;;;;;;;1.98;77.19;102741.41;5016775;28;101202;-28
2023/03/28 03:50:10;;;;;;;0.10;0.10;;;;;;;1.95;77.10;102738.75;5016389;28;97434;-29
2023/03/28 03:52:36;;;;;;;0.45;0.22;;;;;;;1.97;76.78;102742.31;5017603;28;96858;-29
2023/03/28 03:55:01;;;;;;;0.00;0.00;;;;;;;1.94;77.27;102742.31;5016798;28;97952;-29
2023/03/28 03:57:27;;;;;;;1.25;0.38;;;;;;;1.89;77.43;102737.81;5016652;28;97805;-29
2023/03/28 03:59:52;;;;;;;0.13;0.08;;;;;;;1.90;77.26;102749.41;5016875;28;96724;-29
2023/03/28 04:02:18;;;;;;;0.20;0.20;;;;;;;1.87;77.81;102742.28;5016717;28;96741;-30
2023/03/28 04:04:44;;;;;;;0.00;0.00;;;;;;;1.90;77.78;102754.75;5016400;28;99718;-29
2023/03/28 04:07:10;;;;;;;0.10;0.10;;;;;;;1.87;77.94;102750.28;5016693;28;99211;-29
2023/03/28 04:09:36;;;;;;;2.90;0.30;;;;;;;1.86;77.95;102745.84;5015405;28;96595;-29
2023/03/28 04:12:01;;;;;;;0.00;0.00;;;;;;;1.87;77.90;102741.38;5016721;28;96761;-29
2023/03/28 04:14:27;;;;;;;0.00;0.00;;;;;;;1.86;77.90;102736.91;5015960;28;98858;-30
2023/03/28 04:16:52;;;;;;;0.10;0.10;;;;;;;1.87;77.55;102744.06;5016547;28;97925;-29
2023/03/28 04:19:18;;;;;;;0.13;0.13;;;;;;;1.86;77.92;102742.25;5016541;28;96550;-29
2023/03/28 04:21:46;;;;;;;0.40;0.15;;;;;;;1.85;78.07;102743.16;5016653;28;96749;-29
2023/03/28 04:24:14;;;;;;;0.13;0.03;;;;;;;1.86;78.10;102747.59;5014904;28;100823;-30
2023/03/28 04:26:40;;;;;;;0.50;0.28;;;;;;;1.82;77.76;102740.47;5015503;28;98432;-30
2023/03/28 04:29:06;;;;;;;0.43;0.20;;;;;;;1.87;78.40;102744.94;5015215;28;96688;-30
2023/03/28 04:31:34;;;;;;;0.03;0.03;;;;;;;1.83;77.93;102740.44;5015518;28;96944;-30
2023/03/28 04:34:04;;;;;;;1.27;0.47;;;;;;;1.84;77.38;102736.03;5014591;28;100906;-29
2023/03/28 04:36:30;;;;;;;0.30;0.30;;;;;;;1.85;77.88;102746.72;5014714;28;101417;-28
2023/03/28 04:38:58;;;;;;;0.00;0.00;;;;;;;1.85;78.68;102744.03;5014337;28;96548;-29
2023/03/28 04:41:24;;;;;;;0.52;0.30;;;;;;;1.85;77.95;102740.47;5016292;28;96783;-29
2023/03/28 04:43:50;;;;;;;0.00;0.00;;;;;;;1.83;78.30;102747.59;5014506;28;101579;-31
2023/03/28 04:46:16;;;;;;;0.43;0.28;;;;;;;1.79;77.90;102741.34;5014470;28;100922;-29
2023/03/28 04:48:41;;;;;;;0.05;0.05;;;;;;;1.78;78.64;102741.31;5016337;28;96511;-29
2023/03/28 04:51:07;;;;;;;0.80;0.43;;;;;;;1.78;78.89;102738.66;5016325;28;96769;-29
2023/03/28 04:53:32;;;;;;;0.10;0.00;;;;;;;1.75;78.63;102747.56;5015569;28;99359;-29
2023/03/28 04:55:58;;;;;;;0.00;0.00;;;;;;;1.75;78.97;102746.66;5016015;28;99079;-29
2023/03/28 04:58:24;;;;;;;2.03;0.57;;;;;;;1.76;79.04;102743.09;5015982;28;96523;-29
2023/03/28 05:00:50;;;;;;;0.32;0.20;;;;;;;1.75;78.98;102744.88;5016282;28;96719;-30
2023/03/28 05:03:18;;;;;;;0.43;0.43;;;;;;;1.75;79.24;102738.66;5013655;28;100494;-29
2023/03/28 05:05:44;;;;;;;0.00;0.00;;;;;;;1.75;79.17;102747.56;5014311;28;100982;-30
2023/03/28 05:08:14;;;;;;;0.20;0.20;;;;;;;1.75;78.88;102750.22;5014137;28;96643;-29
2023/03/28 05:10:39;;;;;;;0.68;0.38;;;;;;;1.71;79.09;102735.06;5015854;28;96873;-29
2023/03/28 05:13:06;;;;;;;0.35;0.25;;;;;;;1.72;79.31;102742.19;5015239;28;98871;-29
2023/03/28 05:15:31;;;;;;;0.38;0.22;;;;;;;1.69;79.14;102739.50;5013074;28;101049;-30
2023/03/28 05:17:57;;;;;;;0.00;0.00;;;;;;;1.71;79.18;102748.41;5015915;28;96637;-31
2023/03/28 05:20:23;;;;;;;0.10;0.10;;;;;;;1.71;79.23;102745.72;5015944;28;97102;-29
2023/03/28 05:22:49;;;;;;;1.33;0.65;;;;;;;1.75;79.05;102750.22;5013658;28;101466;-29
2023/03/28 05:25:14;;;;;;;0.30;0.30;;;;;;;1.75;79.15;102750.22;5013913;28;101037;-29
2023/03/28 05:27:40;;;;;;;0.13;0.10;;;;;;;1.74;79.19;102750.19;5014315;28;96835;-29
2023/03/28 05:30:07;;;;;;;0.63;0.50;;;;;;;1.75;78.99;102752.88;5015381;28;96859;-30
2023/03/28 05:32:32;;;;;;;0.60;0.40;;;;;;;1.80;79.11;102756.47;5013377;28;102492;-29
2023/03/28 05:34:58;;;;;;;0.00;0.00;;;;;;;1.80;78.74;102751.13;5014625;28;97302;-29
2023/03/28 05:37:24;;;;;;;0.32;0.28;;;;;;;1.83;79.29;102755.59;5011963;28;96760;-29
2023/03/28 05:39:50;;;;;;;0.57;0.52;;;;;;;1.80;78.67;102756.47;5014125;28;96751;-32
2023/03/28 05:42:15;;;;;;;0.63;0.50;;;;;;;1.85;78.84;102757.41;5014410;28;99613;-29
2023/03/28 05:44:41;;;;;;;0.25;0.25;;;;;;;1.86;78.48;102758.28;5015343;28;99671;-29
2023/03/28 05:47:06;;;;;;;0.77;0.68;;;;;;;1.87;78.42;102763.66;5014941;28;98993;-28
2023/03/28 05:49:31;;;;;;;0.25;0.10;;;;;;;1.89;78.39;102764.56;5015456;28;97572;-29
2023/03/28 05:51:57;;;;;;;0.52;0.20;;;;;;;1.88;78.92;102759.19;5012918;28;97849;-30
2023/03/28 05:54:22;;;;;;;3.22;0.95;;;;;;;1.90;79.18;102762.75;5013180;28;97274;-29
2023/03/28 05:56:47;;;;;;;0.98;0.47;;;;;;;1.90;78.93;102755.63;5013551;28;96980;-31
2023/03/28 05:59:13;;;;;;;0.65;0.30;;;;;;;1.92;78.50;102758.31;5011879;28;96919;-33
2023/03/28 06:01:39;;;;;;;0.40;0.25;;;;;;;1.96;78.73;102759.25;5013079;28;97413;-30
2023/03/28 06:04:04;;;;;;;4.50;0.60;;;;;;;1.97;78.49;102763.69;5011332;28;100651;-35
2023/03/28 06:06:32;;;;;;;0.68;0.28;;;;;;;2.03;78.52;102767.31;5013957;28;96675;-31
2023/03/28 06:08:58;;;;;;;1.70;0.38;;;;;;;2.03;79.33;102758.41;5014041;28;96808;-29
2023/03/28 06:11:23;;;;;;;0.20;0.20;;;;;;;2.09;78.66;102758.41;5013144;28;101490;-30
2023/03/28 06:13:49;;;;;;;0.75;0.47;;;;;;;2.17;78.62;102771.78;5014449;28;99155;-29
2023/03/28 06:16:14;;;;;;;0.30;0.30;;;;;;;2.20;78.31;102767.38;5014405;28;96557;-29
2023/03/28 06:18:39;;;;;;;0.32;0.32;;;;;;;2.21;79.22;102763.78;5015064;28;96734;-28
2023/03/28 06:21:05;;;;;;;0.15;0.10;;;;;;;2.27;78.57;102773.66;5014472;28;97410;-31
2023/03/28 06:23:31;;;;;;;0.57;0.22;;;;;;;2.28;78.65;102767.41;5014465;28;97720;-28
2023/03/28 06:25:56;;;;;;;0.00;0.00;;;;;;;2.35;78.98;102766.53;5014424;28;96529;-29
2023/03/28 06:28:21;;;;;;;0.60;0.55;;;;;;;2.40;79.15;102769.22;5013773;28;96923;-29
2023/03/28 06:30:48;;;;;;;2.08;0.32;;;;;;;2.40;78.76;102763.88;5014478;28;97915;-32
2023/03/28 06:33:13;;;;;;;0.32;0.32;;;;;;;2.45;79.01;102762.09;5013000;28;100964;-29
2023/03/28 06:35:39;;;;;;;0.50;0.43;;;;;;;2.52;78.95;102767.47;5014499;28;96609;-29
2023/03/28 06:38:04;;;;;;;0.65;0.30;;;;;;;2.59;78.72;102757.69;5014446;28;96767;-29
2023/03/28 06:40:29;;;;;;;1.88;0.35;;;;;;;2.71;78.59;102760.38;5013917;28;97964;-28
2023/03/28 06:42:55;;;;;;;0.47;0.47;;;;;;;2.85;78.40;102759.53;5014213;28;97782;-29
2023/03/28 06:45:20;;;;;;;1.30;0.68;;;;;;;2.92;77.82;102761.31;5014801;28;96452;-28
2023/03/28 06:47:48;;;;;;;2.60;0.80;;;;;;;3.02;77.79;102759.53;5014641;28;96852;-29
2023/03/28 06:50:13;;;;;;;1.63;0.80;;;;;;;3.16;77.39;102761.31;5012301;28;101645;-30
2023/03/28 06:52:39;;;;;;;1.35;0.73;;;;;;;3.31;77.39;102757.78;5014300;28;97304;-29
2023/03/28 06:55:04;;;;;;;0.32;0.32;;;;;;;3.47;76.50;102763.09;5014454;28;96567;-29
2023/03/28 06:57:30;;;;;;;4.25;1.30;;;;;;;3.59;76.95;102758.59;5014815;28;96744;-29
2023/03/28 06:59:55;;;;;;;0.38;0.38;;;;;;;3.67;76.34;102755.94;5014271;28;97512;-29
2023/03/28 07:02:20;;;;;;;2.15;0.60;;;;;;;3.75;76.64;102758.59;5014051;28;97907;-29
2023/03/28 07:04:46;;;;;;;0.30;0.30;;;;;;;3.88;75.84;102764.81;5013476;28;96624;-30
2023/03/28 07:07:11;;;;;;;1.13;0.70;;;;;;;4.03;75.76;102767.44;5014218;28;96855;-29
2023/03/28 07:09:36;;;;;;;0.38;0.30;;;;;;;4.17;75.98;102767.38;5013538;28;110515;-29
2023/03/28 07:12:03;;;;;;;0.57;0.52;;;;;;;4.22;75.82;102753.06;5013753;28;98775;-28
2023/03/28 07:14:28;;;;;;;1.75;0.75;;;;;;;4.29;75.10;102753.94;5012768;28;96593;-29
2023/03/28 07:16:54;;;;;;;1.65;0.77;;;;;;;4.34;75.06;102756.56;5014062;28;96805;-29
2023/03/28 07:19:20;;;;;;;2.30;1.30;;;;;;;4.46;75.21;102753.84;5013703;28;99501;-30
2023/03/28 07:21:45;;;;;;;0.75;0.63;;;;;;;4.52;75.21;102751.13;5013887;28;99163;-29
2023/03/28 07:24:10;;;;;;;1.02;0.68;;;;;;;4.52;75.08;102745.75;5014127;28;96461;-28
2023/03/28 07:26:36;;;;;;;2.28;1.10;;;;;;;4.55;75.38;102747.53;5013563;28;96731;-29
2023/03/28 07:29:01;;;;;;;1.95;0.70;;;;;;;4.66;75.21;102751.03;5013149;28;97852;-30
2023/03/28 07:31:26;;;;;;;0.70;0.60;;;;;;;4.77;75.38;102754.56;5013638;28;105297;-31
2023/03/28 07:33:55;;;;;;;1.17;0.90;;;;;;;4.85;74.45;102751.81;5013490;28;96433;-31
2023/03/28 07:36:21;;;;;;;1.83;0.98;;;;;;;5.00;73.97;102750.81;5012631;28;96815;-29
2023/03/28 07:38:47;;;;;;;3.58;1.40;;;;;;;5.05;73.68;102748.97;5015883;28;99258;-29
2023/03/28 07:41:13;;;;;;;0.98;0.85;;;;;;;5.15;74.28;102757.84;5015529;28;101032;-29
2023/03/28 07:43:39;;;;;;;1.77;1.33;;;;;;;5.20;73.48;102748.84;5017271;28;96581;-28
2023/03/28 07:46:07;;;;;;;0.28;0.28;;;;;;;5.17;73.50;102753.34;5017466;28;96529;-29
2023/03/28 07:48:34;;;;;;;3.28;0.95;;;;;;;5.05;73.47;102741.81;5015248;28;100893;-29
2023/03/28 07:51:05;;;;;;;1.88;0.80;;;;;;;5.08;73.42;102747.16;5015400;28;100922;-29
2023/03/28 07:53:31;;;;;;;3.03;1.08;;;;;;;5.07;74.44;102737.31;5016530;28;96649;-28
2023/03/28 07:55:57;;;;;;;1.98;1.35;;;;;;;5.06;73.63;102743.59;5015578;28;96884;-29
2023/03/28 07:58:22;;;;;;;0.82;0.82;;;;;;;5.06;73.47;102738.22;5016612;28;99158;-29
2023/03/28 08:00:48;;;;;;;2.55;1.70;;;;;;;5.03;72.69;102742.72;5016767;28;97428;-29
2023/03/28 08:03:14;;;;;;;2.00;1.20;;;;;;;5.05;73.29;102741.81;5016917;28;96946;-28
2023/03/28 08:05:40;;;;;;;1.30;0.82;;;;;;;5.13;73.46;102740.88;5015468;28;96765;-29
2023/03/28 08:08:06;;;;;;;3.17;1.05;;;;;;;5.15;72.72;102745.31;5016589;28;97943;-29
2023/03/28 08:10:32;;;;;;;1.83;0.75;;;;;;;5.10;71.63;102742.69;5015459;28;101011;-30
2023/03/28 08:12:58;;;;;;;0.88;0.60;;;;;;;5.10;71.77;102742.69;5015378;28;96596;-28
2023/03/28 08:15:24;;;;;;;1.60;1.20;;;;;;;5.07;71.81;102745.34;5016396;28;97387;-29
2023/03/28 08:17:49;;;;;;;3.35;1.50;;;;;;;5.14;72.52;102751.59;5015331;28;97959;-30
2023/03/28 08:20:14;;;;;;;1.85;1.02;;;;;;;5.13;71.70;102751.63;5014687;28;99249;-29
2023/03/28 08:22:40;;;;;;;5.05;1.67;;;;;;;5.08;70.37;102741.78;5013639;28;96820;-29
2023/03/28 08:25:06;;;;;;;7.10;2.30;;;;;;;5.15;70.75;102748.00;5016663;28;97371;-29
2023/03/28 08:27:32;;;;;;;1.52;0.93;;;;;;;5.20;70.07;102748.84;5013937;28;101423;-29
2023/03/28 08:29:58;;;;;;;3.38;1.75;;;;;;;5.14;68.11;102739.94;5015400;28;96827;-29
2023/03/28 08:32:24;;;;;;;1.20;1.05;;;;;;;5.20;68.45;102739.91;5016476;28;96623;-29
2023/03/28 08:34:49;;;;;;;1.10;0.80;;;;;;;5.25;68.20;102735.38;5016809;28;96740;-29
2023/03/28 08:37:14;;;;;;;0.85;0.77;;;;;;;5.34;69.30;102740.69;5012877;28;103951;-29
2023/03/28 08:39:41;;;;;;;1.27;0.85;;;;;;;5.31;67.51;102732.63;5013846;28;97281;-29
2023/03/28 08:42:37;;;;;;;0.90;0.70;;;;;;;5.35;67.35;102738.88;5013121;28;97211;-32
2023/03/28 08:45:22;;;;;;;1.27;0.90;;;;;;;5.36;67.54;102744.22;5013971;28;97070;-30
2023/03/28 08:48:10;;;;;;;0.90;0.70;;;;;;;5.40;67.57;102745.97;5012081;28;100722;-33
2023/03/28 08:51:00;;;;;;;2.05;0.70;;;;;;;5.46;67.57;102758.50;5013692;28;97983;-29
2023/03/28 08:53:42;;;;;;;0.60;0.45;;;;;;;5.57;66.87;102744.94;5014418;28;96574;-28
2023/03/28 08:56:08;;;;;;;2.53;1.10;;;;;;;5.63;66.40;102744.88;5016204;28;96745;-29
2023/03/28 08:58:46;;;;;;;0.52;0.52;;;;;;;5.75;66.70;102742.06;5014250;28;100749;-29
2023/03/28 09:01:12;;;;;;;1.00;0.40;;;;;;;5.88;65.08;102738.31;5014874;28;101079;-29
2023/03/28 09:03:38;;;;;;;0.60;0.40;;;;;;;5.88;64.09;102738.31;5014141;28;96639;-29
2023/03/28 09:06:23;;;;;;;1.55;0.50;;;;;;;5.92;65.29;102733.78;5016145;28;96723;-30
2023/03/28 09:09:09;;;;;;;1.48;0.47;;;;;;;5.97;64.97;102736.47;5013788;28;101293;-29
2023/03/28 09:12:03;;;;;;;0.60;0.20;;;;;;;5.90;62.97;102731.13;5015987;28;97317;-28
2023/03/28 09:14:37;;;;;;;0.82;0.68;;;;;;;5.81;64.14;102733.91;5016082;28;96588;-30
2023/03/28 09:17:40;;;;;;;3.50;1.05;;;;;;;5.84;64.41;102731.19;5014585;28;96707;-28
2023/03/28 09:20:28;;;;;;;0.52;0.50;;;;;;;5.83;62.85;102724.03;5015603;28;98133;-29
2023/03/28 09:23:12;;;;;;;1.00;0.77;;;;;;;5.88;62.17;102727.53;5015175;28;97305;-29
2023/03/28 09:25:48;;;;;;;0.22;0.20;;;;;;;5.92;62.22;102710.47;5016039;28;96445;-32
2023/03/28 09:28:47;;;;;;;1.35;0.70;;;;;;;6.05;61.19;102713.91;5014100;28;96805;-28
2023/03/28 09:31:17;;;;;;;0.57;0.40;;;;;;;6.06;60.05;102709.47;5013843;28;100725;-29
2023/03/28 09:33:46;;;;;;;2.15;0.47;;;;;;;6.02;59.41;102697.81;5013576;28;99140;-29
2023/03/28 09:36:20;;;;;;;0.88;0.75;;;;;;;6.08;59.52;102702.25;5013491;28;96586;-29
2023/03/28 09:38:52;;;;;;;0.88;0.60;;;;;;;6.12;60.06;102701.28;5014173;28;96713;-29
2023/03/28 09:41:24;;;;;;;;;;;;;;;6.13;61.09;102692.31;5014134;28;101532;-28
2023/03/28 09:43:56;;;;;;;0.20;0.17;;;;;;;6.15;59.11;102688.69;5013748;28;101004;-29
2023/03/28 09:46:42;;;;;;;0.30;0.30;;;;;;;6.19;59.55;102692.22;5015698;28;96820;-30
2023/03/28 09:49:27;;;;;;;2.03;0.60;;;;;;;6.14;56.42;102692.28;5015149;28;96837;-29
2023/03/28 09:51:55;;;;;;;0.17;0.17;;;;;;;6.08;56.94;102678.06;5014896;28;97534;-29
2023/03/28 09:54:29;;;;;;;1.00;0.43;;;;;;;6.11;56.43;102694.16;5013820;28;101184;-30
2023/03/28 09:57:01;;;;;;;1.15;0.45;;;;;;;6.06;55.90;102677.19;5013698;28;96640;-29
2023/03/28 09:59:32;;;;;;;0.30;0.22;;;;;;;6.19;58.12;102676.09;5013843;28;96834;-29
2023/03/28 10:01:59;;;;;;;0.20;0.20;;;;;;;6.12;54.42;102669.00;5013839;28;97895;-29
2023/03/28 10:04:27;;;;;;;0.80;0.40;;;;;;;6.15;54.19;102671.69;5013214;28;101289;-29
2023/03/28 10:06:56;;;;;;;0.43;0.30;;;;;;;6.18;54.78;102668.06;5015252;28;96735;-29
2023/03/28 10:09:24;;;;;;;0.90;0.75;;;;;;;6.21;53.72;102659.94;5014914;28;96816;-29
2023/03/28 10:11:54;;;;;;;1.73;0.75;;;;;;;6.19;53.42;102662.63;5013335;28;100795;-28
2023/03/28 10:14:30;;;;;;;0.10;0.10;;;;;;;6.29;55.47;102650.84;5013111;28;101342;-29
2023/03/28 10:16:59;;;;;;;1.27;0.63;;;;;;;6.33;55.15;102646.28;5014726;28;96553;-29
2023/03/28 10:19:30;;;;;;;0.60;0.57;;;;;;;6.29;54.28;102644.53;5013928;28;96856;-29
2023/03/28 10:21:55;;;;;;;0.70;0.60;;;;;;;6.40;54.80;102647.97;5013240;28;101279;-29
2023/03/28 10:24:21;;;;;;;0.25;0.25;;;;;;;6.61;54.16;102646.75;5014492;28;97411;-29
2023/03/28 10:26:47;;;;;;;1.10;0.60;;;;;;;6.72;54.26;102631.31;5013568;28;96745;-29
2023/03/28 10:29:14;;;;;;;1.63;0.93;;;;;;;6.85;52.65;102636.50;5013456;28;96887;-29
2023/03/28 10:31:46;;;;;;;0.60;0.50;;;;;;;6.98;55.04;102633.56;5012901;28;100791;-29
2023/03/28 10:34:25;;;;;;;1.27;0.65;;;;;;;7.24;54.38;102634.88;5012747;28;100072;-29
2023/03/28 10:36:50;;;;;;;2.03;0.88;;;;;;;7.26;54.87;102624.97;5014882;28;96569;-29
2023/03/28 10:39:21;;;;;;;7.53;1.05;;;;;;;7.45;52.86;102617.41;5013937;28;100012;-30
2023/03/28 10:42:01;;;;;;;2.47;0.90;;;;;;;7.43;53.75;102605.75;5014244;28;99429;-28
2023/03/28 10:44:35;;;;;;;0.98;0.80;;;;;;;7.47;54.59;102601.22;5014471;28;97320;-30
2023/03/28 10:47:09;;;;;;;6.32;1.35;;;;;;;7.43;55.25;102592.28;5014494;28;96536;-28
2023/03/28 10:49:46;;;;;;;0.93;0.73;;;;;;;7.31;52.68;102592.53;5013184;28;96724;-30
2023/03/28 10:52:22;;;;;;;3.80;1.20;;;;;;;7.14;54.30;102596.44;5012242;28;100834;-29
2023/03/28 10:55:05;;;;;;;1.60;1.35;;;;;;;7.05;53.55;102602.00;5014343;28;97502;-29
2023/03/28 10:57:41;;;;;;;3.03;0.90;;;;;;;7.01;55.50;102598.47;5013060;28;96716;-29
2023/03/28 11:00:17;;;;;;;3.17;1.92;;;;;;;6.87;55.01;102580.81;5012761;28;96674;-28
2023/03/28 11:02:50;;;;;;;3.75;1.80;;;;;;;6.84;53.95;102587.13;5012487;28;101210;-29
2023/03/28 11:05:27;;;;;;;2.22;1.13;;;;;;;6.85;53.04;102588.91;5012628;28;100370;-29
2023/03/28 11:07:53;;;;;;;1.48;1.00;;;;;;;6.90;54.61;102591.50;5012738;28;96541;-29
2023/03/28 11:10:28;;;;;;;3.00;1.10;;;;;;;6.96;54.84;102580.59;5014767;28;96794;-29
2023/03/28 11:13:05;;;;;;;1.15;0.77;;;;;;;7.02;53.76;102586.78;5013579;28;101375;-29
2023/03/28 11:16:05;;;;;;;1.15;0.80;;;;;;;7.08;52.72;102572.31;5017779;28;97322;-29
2023/03/28 11:18:52;;;;;;;3.15;0.88;;;;;;;7.05;52.83;102579.56;5016841;28;96481;-29
2023/03/28 11:21:26;;;;;;;0.82;0.50;;;;;;;7.06;53.95;102567.88;5017435;28;96855;-29
2023/03/28 11:24:08;;;;;;;1.77;1.00;;;;;;;7.11;53.64;102572.25;5017475;28;97421;-28
2023/03/28 11:26:40;;;;;;;;;;;;;;;7.02;53.75;102559.84;5015803;28;100859;-28
2023/03/28 11:29:17;;;;;;;0.95;0.60;;;;;;;6.90;54.82;102552.00;5016223;28;96614;-29
2023/03/28 11:31:42;;;;;;;1.65;0.73;;;;;;;6.92;53.64;102546.59;5017749;28;96593;-29
2023/03/28 11:34:27;;;;;;;1.90;1.23;;;;;;;6.85;53.48;102545.81;5017066;28;98015;-29
2023/03/28 11:37:40;;;;;;;0.52;0.30;;;;;;;6.83;54.78;102530.59;5016200;28;101070;-29
2023/03/28 11:40:19;;;;;;;0.30;0.30;;;;;;;6.92;54.46;102530.41;4983036;28;96673;-29
2023/03/28 11:42:52;;;;;;;0.77;0.63;;;;;;;7.05;54.58;102518.47;5015862;28;96674;-32
2023/03/28 11:45:30;;;;;;;0.95;0.52;;;;;;;7.06;54.34;102516.69;5014833;28;100815;-31
2023/03/28 11:48:04;;;;;;;2.05;1.08;;;;;;;6.93;54.17;102505.25;5017141;28;97779;-29